sensor_id;sensor_type;location;lat;lon;timestamp;temperature;humidity
12885;DHT22;6510;51.362;7.370;2023-05-21T00:02:16;12.10;99.90
12885;DHT22;6510;51.362;7.370;2023-05-21T00:04:43;12.00;99.90
12885;DHT22;6510;51.362;7.370;2023-05-21T00:07:10;12.00;99.90
12885;DHT22;6510;51.362;7.370;2023-05-21T00:09:36;12.00;99.90
12885;DHT22;6510;51.362;7.370;2023-05-21T00:12:06;12.00;99.90
12885;DHT22;6510;51.362;7.370;2023-05-21T00:14:32;12.00;99.90
12885;DHT22;6510;51.362;7.370;2023-05-21T00:16:57;12.00;99.90
12885;DHT22;6510;51.362;7.370;2023-05-21T00:19:23;12.00;99.90
12885;DHT22;6510;51.362;7.370;2023-05-21T00:21:48;11.90;99.90
12885;DHT22;6510;51.362;7.370;2023-05-21T00:24:14;11.90;99.90
12885;DHT22;6510;51.362;7.370;2023-05-21T00:26:40;11.90;99.90
12885;DHT22;6510;51.362;7.370;2023-05-21T00:29:06;11.90;99.90
12885;DHT22;6510;51.362;7.370;2023-05-21T00:31:31;11.90;99.90
12885;DHT22;6510;51.362;7.370;2023-05-21T00:33:58;11.90;99.90
12885;DHT22;6510;51.362;7.370;2023-05-21T00:36:24;11.90;99.90
12885;DHT22;6510;51.362;7.370;2023-05-21T00:38:50;11.90;99.90
12885;DHT22;6510;51.362;7.370;2023-05-21T00:41:16;11.90;99.90
12885;DHT22;6510;51.362;7.370;2023-05-21T00:43:42;11.90;99.90
12885;DHT22;6510;51.362;7.370;2023-05-21T00:46:17;11.90;99.90
12885;DHT22;6510;51.362;7.370;2023-05-21T00:48:45;11.90;99.90
12885;DHT22;6510;51.362;7.370;2023-05-21T00:51:12;11.90;99.90
12885;DHT22;6510;51.362;7.370;2023-05-21T00:53:38;11.90;99.90
12885;DHT22;6510;51.362;7.370;2023-05-21T00:56:04;11.80;99.90
12885;DHT22;6510;51.362;7.370;2023-05-21T00:58:31;11.80;99.90
12885;DHT22;6510;51.362;7.370;2023-05-21T01:00:58;11.80;99.90
12885;DHT22;6510;51.362;7.370;2023-05-21T01:03:31;11.80;99.90
12885;DHT22;6510;51.362;7.370;2023-05-21T01:06:03;11.80;99.90
12885;DHT22;6510;51.362;7.370;2023-05-21T01:08:29;11.80;99.90
12885;DHT22;6510;51.362;7.370;2023-05-21T01:10:55;11.80;99.90
12885;DHT22;6510;51.362;7.370;2023-05-21T01:13:22;11.80;99.90
12885;DHT22;6510;51.362;7.370;2023-05-21T01:15:49;11.80;99.90
12885;DHT22;6510;51.362;7.370;2023-05-21T01:18:15;11.70;99.90
12885;DHT22;6510;51.362;7.370;2023-05-21T01:20:41;11.70;99.90
12885;DHT22;6510;51.362;7.370;2023-05-21T01:23:18;11.70;99.90
12885;DHT22;6510;51.362;7.370;2023-05-21T01:25:44;11.70;99.90
12885;DHT22;6510;51.362;7.370;2023-05-21T01:28:10;11.60;99.90
12885;DHT22;6510;51.362;7.370;2023-05-21T01:30:37;11.60;99.90
12885;DHT22;6510;51.362;7.370;2023-05-21T01:33:22;11.60;99.90
12885;DHT22;6510;51.362;7.370;2023-05-21T01:35:56;11.60;99.90
12885;DHT22;6510;51.362;7.370;2023-05-21T01:38:37;11.60;99.90
12885;DHT22;6510;51.362;7.370;2023-05-21T01:41:12;11.60;99.90
12885;DHT22;6510;51.362;7.370;2023-05-21T01:43:41;11.60;99.90
12885;DHT22;6510;51.362;7.370;2023-05-21T01:46:09;11.50;99.90
12885;DHT22;6510;51.362;7.370;2023-05-21T01:48:37;11.60;99.90
12885;DHT22;6510;51.362;7.370;2023-05-21T01:51:04;11.60;99.90
12885;DHT22;6510;51.362;7.370;2023-05-21T01:53:30;11.50;99.90
12885;DHT22;6510;51.362;7.370;2023-05-21T01:55:56;11.50;99.90
12885;DHT22;6510;51.362;7.370;2023-05-21T01:58:22;11.50;99.90
12885;DHT22;6510;51.362;7.370;2023-05-21T02:00:48;11.40;99.90
12885;DHT22;6510;51.362;7.370;2023-05-21T02:03:17;11.50;99.90
12885;DHT22;6510;51.362;7.370;2023-05-21T02:05:43;11.40;99.90
12885;DHT22;6510;51.362;7.370;2023-05-21T02:08:09;11.40;99.90
12885;DHT22;6510;51.362;7.370;2023-05-21T02:10:35;11.40;99.90
12885;DHT22;6510;51.362;7.370;2023-05-21T02:13:01;11.40;99.90
12885;DHT22;6510;51.362;7.370;2023-05-21T02:15:27;11.40;99.90
12885;DHT22;6510;51.362;7.370;2023-05-21T02:17:53;11.40;99.90
12885;DHT22;6510;51.362;7.370;2023-05-21T02:20:20;11.40;99.90
12885;DHT22;6510;51.362;7.370;2023-05-21T02:22:47;11.40;99.90
12885;DHT22;6510;51.362;7.370;2023-05-21T02:25:18;11.40;99.90
12885;DHT22;6510;51.362;7.370;2023-05-21T02:27:46;11.30;99.90
12885;DHT22;6510;51.362;7.370;2023-05-21T02:30:13;11.40;99.90
12885;DHT22;6510;51.362;7.370;2023-05-21T02:32:40;11.40;99.90
12885;DHT22;6510;51.362;7.370;2023-05-21T02:35:07;11.40;99.90
12885;DHT22;6510;51.362;7.370;2023-05-21T02:37:34;11.40;99.90
12885;DHT22;6510;51.362;7.370;2023-05-21T02:40:01;11.40;99.90
12885;DHT22;6510;51.362;7.370;2023-05-21T02:42:28;11.40;99.90
12885;DHT22;6510;51.362;7.370;2023-05-21T02:44:54;11.30;99.90
12885;DHT22;6510;51.362;7.370;2023-05-21T02:47:20;11.30;99.90
12885;DHT22;6510;51.362;7.370;2023-05-21T02:49:49;11.30;99.90
12885;DHT22;6510;51.362;7.370;2023-05-21T02:52:15;11.30;99.90
12885;DHT22;6510;51.362;7.370;2023-05-21T02:54:43;11.30;99.90
12885;DHT22;6510;51.362;7.370;2023-05-21T02:57:09;11.30;99.90
12885;DHT22;6510;51.362;7.370;2023-05-21T02:59:35;11.30;99.90
12885;DHT22;6510;51.362;7.370;2023-05-21T03:02:00;11.30;99.90
12885;DHT22;6510;51.362;7.370;2023-05-21T03:04:26;11.20;99.90
12885;DHT22;6510;51.362;7.370;2023-05-21T03:06:53;11.30;99.90
12885;DHT22;6510;51.362;7.370;2023-05-21T03:09:23;11.20;99.90
12885;DHT22;6510;51.362;7.370;2023-05-21T03:11:49;11.20;99.90
12885;DHT22;6510;51.362;7.370;2023-05-21T03:14:15;11.20;99.90
12885;DHT22;6510;51.362;7.370;2023-05-21T03:16:41;11.20;99.90
12885;DHT22;6510;51.362;7.370;2023-05-21T03:19:08;11.20;99.90
12885;DHT22;6510;51.362;7.370;2023-05-21T03:21:34;11.20;99.90
12885;DHT22;6510;51.362;7.370;2023-05-21T03:24:01;11.20;99.90
12885;DHT22;6510;51.362;7.370;2023-05-21T03:26:27;11.20;99.90
12885;DHT22;6510;51.362;7.370;2023-05-21T03:28:54;11.20;99.90
12885;DHT22;6510;51.362;7.370;2023-05-21T03:31:20;11.20;99.90
12885;DHT22;6510;51.362;7.370;2023-05-21T03:33:46;11.20;99.90
12885;DHT22;6510;51.362;7.370;2023-05-21T03:36:11;11.20;99.90
12885;DHT22;6510;51.362;7.370;2023-05-21T03:38:37;11.20;99.90
12885;DHT22;6510;51.362;7.370;2023-05-21T03:41:03;11.20;99.90
12885;DHT22;6510;51.362;7.370;2023-05-21T03:43:28;11.20;99.90
12885;DHT22;6510;51.362;7.370;2023-05-21T03:45:54;11.20;99.90
12885;DHT22;6510;51.362;7.370;2023-05-21T03:48:20;11.20;99.90
12885;DHT22;6510;51.362;7.370;2023-05-21T03:50:45;11.10;99.90
12885;DHT22;6510;51.362;7.370;2023-05-21T03:53:11;11.20;99.90
12885;DHT22;6510;51.362;7.370;2023-05-21T03:55:38;11.10;99.90
12885;DHT22;6510;51.362;7.370;2023-05-21T03:58:03;11.20;99.90
12885;DHT22;6510;51.362;7.370;2023-05-21T04:00:29;11.20;99.90
12885;DHT22;6510;51.362;7.370;2023-05-21T04:02:57;11.20;99.90
12885;DHT22;6510;51.362;7.370;2023-05-21T04:05:22;11.20;99.90
12885;DHT22;6510;51.362;7.370;2023-05-21T04:07:48;11.20;99.90
12885;DHT22;6510;51.362;7.370;2023-05-21T04:10:14;11.30;99.90
12885;DHT22;6510;51.362;7.370;2023-05-21T04:12:40;11.30;99.90
12885;DHT22;6510;51.362;7.370;2023-05-21T04:15:06;11.30;99.90
12885;DHT22;6510;51.362;7.370;2023-05-21T04:17:32;11.20;99.90
12885;DHT22;6510;51.362;7.370;2023-05-21T04:19:59;11.20;99.90
12885;DHT22;6510;51.362;7.370;2023-05-21T04:22:24;11.30;99.90
12885;DHT22;6510;51.362;7.370;2023-05-21T04:24:52;11.30;99.90
12885;DHT22;6510;51.362;7.370;2023-05-21T04:27:20;11.20;99.90
12885;DHT22;6510;51.362;7.370;2023-05-21T04:29:48;11.30;99.90
12885;DHT22;6510;51.362;7.370;2023-05-21T04:32:14;11.30;99.90
12885;DHT22;6510;51.362;7.370;2023-05-21T04:34:42;11.40;99.90
12885;DHT22;6510;51.362;7.370;2023-05-21T04:37:08;11.30;99.90
12885;DHT22;6510;51.362;7.370;2023-05-21T04:39:33;11.40;99.90
12885;DHT22;6510;51.362;7.370;2023-05-21T04:41:59;11.40;99.90
12885;DHT22;6510;51.362;7.370;2023-05-21T04:44:26;11.40;99.90
12885;DHT22;6510;51.362;7.370;2023-05-21T04:46:52;11.40;99.90
12885;DHT22;6510;51.362;7.370;2023-05-21T04:49:19;11.50;99.90
12885;DHT22;6510;51.362;7.370;2023-05-21T04:51:45;11.50;99.90
12885;DHT22;6510;51.362;7.370;2023-05-21T04:54:11;11.50;99.90
12885;DHT22;6510;51.362;7.370;2023-05-21T04:56:37;11.60;99.90
12885;DHT22;6510;51.362;7.370;2023-05-21T04:59:02;11.60;99.90
12885;DHT22;6510;51.362;7.370;2023-05-21T05:01:29;11.70;99.90
12885;DHT22;6510;51.362;7.370;2023-05-21T05:03:56;11.70;99.90
12885;DHT22;6510;51.362;7.370;2023-05-21T05:06:22;11.70;99.90
12885;DHT22;6510;51.362;7.370;2023-05-21T05:08:50;11.80;99.90
12885;DHT22;6510;51.362;7.370;2023-05-21T05:11:15;11.70;99.90
12885;DHT22;6510;51.362;7.370;2023-05-21T05:13:41;11.80;99.90
12885;DHT22;6510;51.362;7.370;2023-05-21T05:16:07;11.80;99.90
12885;DHT22;6510;51.362;7.370;2023-05-21T05:18:33;11.80;99.90
12885;DHT22;6510;51.362;7.370;2023-05-21T05:20:59;11.80;99.90
12885;DHT22;6510;51.362;7.370;2023-05-21T05:23:25;11.80;99.90
12885;DHT22;6510;51.362;7.370;2023-05-21T05:25:51;11.90;99.90
12885;DHT22;6510;51.362;7.370;2023-05-21T05:28:16;11.90;99.90
12885;DHT22;6510;51.362;7.370;2023-05-21T05:30:42;12.00;99.90
12885;DHT22;6510;51.362;7.370;2023-05-21T05:33:08;12.00;99.90
12885;DHT22;6510;51.362;7.370;2023-05-21T05:35:33;12.00;99.90
12885;DHT22;6510;51.362;7.370;2023-05-21T05:37:59;12.00;99.90
12885;DHT22;6510;51.362;7.370;2023-05-21T05:40:25;12.10;99.90
12885;DHT22;6510;51.362;7.370;2023-05-21T05:42:50;12.20;99.90
12885;DHT22;6510;51.362;7.370;2023-05-21T05:45:17;12.20;99.90
12885;DHT22;6510;51.362;7.370;2023-05-21T05:47:43;12.20;99.90
12885;DHT22;6510;51.362;7.370;2023-05-21T05:50:09;12.20;99.90
12885;DHT22;6510;51.362;7.370;2023-05-21T05:52:35;12.30;99.90
12885;DHT22;6510;51.362;7.370;2023-05-21T05:55:01;12.40;99.90
12885;DHT22;6510;51.362;7.370;2023-05-21T05:57:27;12.50;99.90
12885;DHT22;6510;51.362;7.370;2023-05-21T05:59:52;12.50;99.90
12885;DHT22;6510;51.362;7.370;2023-05-21T06:02:18;12.50;99.90
12885;DHT22;6510;51.362;7.370;2023-05-21T06:04:43;12.70;99.90
12885;DHT22;6510;51.362;7.370;2023-05-21T06:07:09;12.60;99.90
12885;DHT22;6510;51.362;7.370;2023-05-21T06:09:35;12.60;99.90
12885;DHT22;6510;51.362;7.370;2023-05-21T06:12:04;12.60;99.90
12885;DHT22;6510;51.362;7.370;2023-05-21T06:14:29;12.80;99.90
12885;DHT22;6510;51.362;7.370;2023-05-21T06:16:55;12.80;99.90
12885;DHT22;6510;51.362;7.370;2023-05-21T06:19:21;12.90;99.90
12885;DHT22;6510;51.362;7.370;2023-05-21T06:21:46;13.00;99.90
12885;DHT22;6510;51.362;7.370;2023-05-21T06:24:12;13.10;99.90
12885;DHT22;6510;51.362;7.370;2023-05-21T06:26:41;13.00;99.90
12885;DHT22;6510;51.362;7.370;2023-05-21T06:29:07;13.10;99.90
12885;DHT22;6510;51.362;7.370;2023-05-21T06:31:32;13.00;99.90
12885;DHT22;6510;51.362;7.370;2023-05-21T06:33:59;13.10;99.90
12885;DHT22;6510;51.362;7.370;2023-05-21T06:36:25;13.10;99.90
12885;DHT22;6510;51.362;7.370;2023-05-21T06:38:55;13.20;99.90
12885;DHT22;6510;51.362;7.370;2023-05-21T06:41:21;13.30;99.90
12885;DHT22;6510;51.362;7.370;2023-05-21T06:43:47;13.40;99.90
12885;DHT22;6510;51.362;7.370;2023-05-21T06:46:12;13.30;99.90
12885;DHT22;6510;51.362;7.370;2023-05-21T06:48:38;13.30;99.90
12885;DHT22;6510;51.362;7.370;2023-05-21T06:51:04;13.40;99.90
12885;DHT22;6510;51.362;7.370;2023-05-21T06:53:29;13.50;99.90
12885;DHT22;6510;51.362;7.370;2023-05-21T06:55:55;13.60;99.90
12885;DHT22;6510;51.362;7.370;2023-05-21T06:58:21;13.60;99.90
12885;DHT22;6510;51.362;7.370;2023-05-21T07:00:47;14.00;99.90
12885;DHT22;6510;51.362;7.370;2023-05-21T07:03:13;14.10;99.90
12885;DHT22;6510;51.362;7.370;2023-05-21T07:05:39;14.30;99.90
12885;DHT22;6510;51.362;7.370;2023-05-21T07:08:04;14.60;99.90
12885;DHT22;6510;51.362;7.370;2023-05-21T07:10:30;15.00;99.90
12885;DHT22;6510;51.362;7.370;2023-05-21T07:12:56;14.80;99.90
12885;DHT22;6510;51.362;7.370;2023-05-21T07:15:22;15.30;99.90
12885;DHT22;6510;51.362;7.370;2023-05-21T07:17:47;15.60;99.90
12885;DHT22;6510;51.362;7.370;2023-05-21T07:20:13;15.50;99.90
12885;DHT22;6510;51.362;7.370;2023-05-21T07:22:39;15.70;99.90
12885;DHT22;6510;51.362;7.370;2023-05-21T07:25:05;15.60;99.90
12885;DHT22;6510;51.362;7.370;2023-05-21T07:27:31;15.70;99.90
12885;DHT22;6510;51.362;7.370;2023-05-21T07:29:56;15.40;99.90
12885;DHT22;6510;51.362;7.370;2023-05-21T07:32:22;15.50;99.90
12885;DHT22;6510;51.362;7.370;2023-05-21T07:34:47;15.40;99.90
12885;DHT22;6510;51.362;7.370;2023-05-21T07:37:13;15.60;99.90
12885;DHT22;6510;51.362;7.370;2023-05-21T07:39:39;15.70;99.90
12885;DHT22;6510;51.362;7.370;2023-05-21T07:42:04;15.80;99.90
12885;DHT22;6510;51.362;7.370;2023-05-21T07:44:30;15.80;99.90
12885;DHT22;6510;51.362;7.370;2023-05-21T07:46:56;15.50;99.90
12885;DHT22;6510;51.362;7.370;2023-05-21T07:49:22;15.70;99.90
12885;DHT22;6510;51.362;7.370;2023-05-21T07:51:48;15.90;99.90
12885;DHT22;6510;51.362;7.370;2023-05-21T07:54:13;15.70;99.90
12885;DHT22;6510;51.362;7.370;2023-05-21T07:56:39;16.20;99.90
12885;DHT22;6510;51.362;7.370;2023-05-21T07:59:04;16.50;99.90
12885;DHT22;6510;51.362;7.370;2023-05-21T08:01:30;16.80;99.90
12885;DHT22;6510;51.362;7.370;2023-05-21T08:03:58;17.20;99.90
12885;DHT22;6510;51.362;7.370;2023-05-21T08:06:30;17.50;99.90
12885;DHT22;6510;51.362;7.370;2023-05-21T08:08:55;17.80;99.90
12885;DHT22;6510;51.362;7.370;2023-05-21T08:11:21;17.80;99.90
12885;DHT22;6510;51.362;7.370;2023-05-21T08:13:47;17.50;99.90
12885;DHT22;6510;51.362;7.370;2023-05-21T08:16:13;17.30;99.90
12885;DHT22;6510;51.362;7.370;2023-05-21T08:18:38;17.80;99.90
12885;DHT22;6510;51.362;7.370;2023-05-21T08:21:05;17.80;99.90
12885;DHT22;6510;51.362;7.370;2023-05-21T08:23:31;17.80;99.90
12885;DHT22;6510;51.362;7.370;2023-05-21T08:25:56;17.70;99.90
12885;DHT22;6510;51.362;7.370;2023-05-21T08:28:22;17.30;99.90
12885;DHT22;6510;51.362;7.370;2023-05-21T08:30:48;17.30;99.90
12885;DHT22;6510;51.362;7.370;2023-05-21T08:33:14;17.40;99.90
12885;DHT22;6510;51.362;7.370;2023-05-21T08:35:40;17.30;99.90
12885;DHT22;6510;51.362;7.370;2023-05-21T08:38:05;17.40;99.90
12885;DHT22;6510;51.362;7.370;2023-05-21T08:40:31;17.20;99.90
12885;DHT22;6510;51.362;7.370;2023-05-21T08:42:57;17.20;99.90
12885;DHT22;6510;51.362;7.370;2023-05-21T08:45:22;17.30;99.90
12885;DHT22;6510;51.362;7.370;2023-05-21T08:47:54;17.30;99.90
12885;DHT22;6510;51.362;7.370;2023-05-21T08:50:22;17.30;99.90
12885;DHT22;6510;51.362;7.370;2023-05-21T08:52:49;17.00;99.90
12885;DHT22;6510;51.362;7.370;2023-05-21T08:55:15;16.80;99.90
12885;DHT22;6510;51.362;7.370;2023-05-21T08:57:42;17.20;99.90
12885;DHT22;6510;51.362;7.370;2023-05-21T09:00:08;17.60;99.90
12885;DHT22;6510;51.362;7.370;2023-05-21T09:02:37;17.80;99.90
12885;DHT22;6510;51.362;7.370;2023-05-21T09:05:05;17.60;99.90
12885;DHT22;6510;51.362;7.370;2023-05-21T09:07:47;17.80;99.90
12885;DHT22;6510;51.362;7.370;2023-05-21T09:10:17;18.00;99.90
12885;DHT22;6510;51.362;7.370;2023-05-21T09:12:53;18.40;99.90
12885;DHT22;6510;51.362;7.370;2023-05-21T09:15:19;18.70;99.90
12885;DHT22;6510;51.362;7.370;2023-05-21T09:17:48;18.90;99.90
12885;DHT22;6510;51.362;7.370;2023-05-21T09:20:14;18.60;99.90
12885;DHT22;6510;51.362;7.370;2023-05-21T09:25:08;18.90;99.90
12885;DHT22;6510;51.362;7.370;2023-05-21T09:27:34;19.20;99.90
12885;DHT22;6510;51.362;7.370;2023-05-21T09:30:01;19.00;99.90
12885;DHT22;6510;51.362;7.370;2023-05-21T09:32:27;19.10;99.90
12885;DHT22;6510;51.362;7.370;2023-05-21T09:34:52;19.20;99.90
12885;DHT22;6510;51.362;7.370;2023-05-21T09:37:18;19.20;99.90
12885;DHT22;6510;51.362;7.370;2023-05-21T09:39:46;19.50;99.90
12885;DHT22;6510;51.362;7.370;2023-05-21T09:42:12;19.50;99.90
12885;DHT22;6510;51.362;7.370;2023-05-21T09:44:38;19.70;99.90
12885;DHT22;6510;51.362;7.370;2023-05-21T09:47:04;19.90;99.90
12885;DHT22;6510;51.362;7.370;2023-05-21T09:49:30;19.90;99.90
12885;DHT22;6510;51.362;7.370;2023-05-21T09:51:56;19.70;99.90
12885;DHT22;6510;51.362;7.370;2023-05-21T09:54:23;19.50;99.90
12885;DHT22;6510;51.362;7.370;2023-05-21T09:56:50;19.40;99.90
12885;DHT22;6510;51.362;7.370;2023-05-21T09:59:20;19.50;99.90
12885;DHT22;6510;51.362;7.370;2023-05-21T10:01:46;19.70;99.90
12885;DHT22;6510;51.362;7.370;2023-05-21T10:04:14;19.30;99.90
12885;DHT22;6510;51.362;7.370;2023-05-21T10:06:45;19.20;99.90
12885;DHT22;6510;51.362;7.370;2023-05-21T10:09:14;19.30;99.90
12885;DHT22;6510;51.362;7.370;2023-05-21T10:11:43;19.60;99.90
12885;DHT22;6510;51.362;7.370;2023-05-21T10:14:15;19.50;99.90
12885;DHT22;6510;51.362;7.370;2023-05-21T10:16:41;19.50;99.90
12885;DHT22;6510;51.362;7.370;2023-05-21T10:19:08;19.10;99.90
12885;DHT22;6510;51.362;7.370;2023-05-21T10:21:35;19.10;99.90
12885;DHT22;6510;51.362;7.370;2023-05-21T10:24:02;19.20;99.90
12885;DHT22;6510;51.362;7.370;2023-05-21T10:26:29;19.10;99.90
12885;DHT22;6510;51.362;7.370;2023-05-21T10:28:55;19.20;99.90
12885;DHT22;6510;51.362;7.370;2023-05-21T10:31:22;19.00;99.90
12885;DHT22;6510;51.362;7.370;2023-05-21T10:33:48;19.30;99.90
12885;DHT22;6510;51.362;7.370;2023-05-21T10:36:19;19.00;99.90
12885;DHT22;6510;51.362;7.370;2023-05-21T10:38:46;19.20;99.90
12885;DHT22;6510;51.362;7.370;2023-05-21T10:41:13;19.50;99.90
12885;DHT22;6510;51.362;7.370;2023-05-21T10:44:09;19.00;99.90
12885;DHT22;6510;51.362;7.370;2023-05-21T10:46:39;19.00;99.90
12885;DHT22;6510;51.362;7.370;2023-05-21T10:49:37;19.30;99.90
12885;DHT22;6510;51.362;7.370;2023-05-21T10:52:22;19.80;99.90
12885;DHT22;6510;51.362;7.370;2023-05-21T11:00:45;20.30;99.90
12885;DHT22;6510;51.362;7.370;2023-05-21T11:03:12;20.50;99.90
12885;DHT22;6510;51.362;7.370;2023-05-21T11:05:49;20.80;99.90
12885;DHT22;6510;51.362;7.370;2023-05-21T11:08:34;20.90;99.90
12885;DHT22;6510;51.362;7.370;2023-05-21T11:11:02;21.10;99.90
12885;DHT22;6510;51.362;7.370;2023-05-21T11:13:43;21.50;99.90
12885;DHT22;6510;51.362;7.370;2023-05-21T11:16:13;21.50;99.90
12885;DHT22;6510;51.362;7.370;2023-05-21T11:21:28;21.90;99.90
12885;DHT22;6510;51.362;7.370;2023-05-21T11:24:04;22.20;99.90
12885;DHT22;6510;51.362;7.370;2023-05-21T11:29:15;21.40;99.90
12885;DHT22;6510;51.362;7.370;2023-05-21T11:31:49;21.10;99.90
12885;DHT22;6510;51.362;7.370;2023-05-21T11:34:23;20.90;99.90
12885;DHT22;6510;51.362;7.370;2023-05-21T11:39:45;21.40;99.90
12885;DHT22;6510;51.362;7.370;2023-05-21T11:42:10;21.60;99.90
12885;DHT22;6510;51.362;7.370;2023-05-21T11:44:44;21.70;99.90
12885;DHT22;6510;51.362;7.370;2023-05-21T11:47:14;21.10;99.90
12885;DHT22;6510;51.362;7.370;2023-05-21T11:49:40;21.30;99.90
12885;DHT22;6510;51.362;7.370;2023-05-21T11:52:08;20.80;99.90
12885;DHT22;6510;51.362;7.370;2023-05-21T11:54:39;20.60;99.90
12885;DHT22;6510;51.362;7.370;2023-05-21T11:57:06;20.80;99.90
12885;DHT22;6510;51.362;7.370;2023-05-21T11:59:32;21.00;99.90
12885;DHT22;6510;51.362;7.370;2023-05-21T12:01:59;21.30;99.90
12885;DHT22;6510;51.362;7.370;2023-05-21T12:04:32;21.10;99.90
12885;DHT22;6510;51.362;7.370;2023-05-21T12:07:03;21.20;99.90
12885;DHT22;6510;51.362;7.370;2023-05-21T12:09:29;21.40;99.90
12885;DHT22;6510;51.362;7.370;2023-05-21T12:11:55;21.50;99.90
12885;DHT22;6510;51.362;7.370;2023-05-21T12:14:20;21.80;99.90
12885;DHT22;6510;51.362;7.370;2023-05-21T12:16:46;21.50;99.90
12885;DHT22;6510;51.362;7.370;2023-05-21T12:19:16;21.70;99.90
12885;DHT22;6510;51.362;7.370;2023-05-21T12:21:43;21.60;99.90
12885;DHT22;6510;51.362;7.370;2023-05-21T12:24:08;22.00;99.90
12885;DHT22;6510;51.362;7.370;2023-05-21T12:26:35;22.20;99.90
12885;DHT22;6510;51.362;7.370;2023-05-21T12:29:00;22.20;99.90
12885;DHT22;6510;51.362;7.370;2023-05-21T12:31:29;22.60;99.90
12885;DHT22;6510;51.362;7.370;2023-05-21T12:33:55;22.90;99.90
12885;DHT22;6510;51.362;7.370;2023-05-21T12:36:30;23.00;99.90
12885;DHT22;6510;51.362;7.370;2023-05-21T12:38:58;23.30;99.90
12885;DHT22;6510;51.362;7.370;2023-05-21T12:41:25;23.30;99.90
12885;DHT22;6510;51.362;7.370;2023-05-21T12:43:50;22.90;99.90
12885;DHT22;6510;51.362;7.370;2023-05-21T12:46:16;23.30;99.90
12885;DHT22;6510;51.362;7.370;2023-05-21T12:48:52;23.20;99.90
12885;DHT22;6510;51.362;7.370;2023-05-21T12:51:18;23.60;99.90
12885;DHT22;6510;51.362;7.370;2023-05-21T12:53:45;24.50;99.90
12885;DHT22;6510;51.362;7.370;2023-05-21T12:56:12;23.70;99.90
12885;DHT22;6510;51.362;7.370;2023-05-21T12:58:38;23.40;99.90
12885;DHT22;6510;51.362;7.370;2023-05-21T13:01:10;23.60;99.90
12885;DHT22;6510;51.362;7.370;2023-05-21T13:03:37;24.50;99.90
12885;DHT22;6510;51.362;7.370;2023-05-21T13:06:09;24.90;99.90
12885;DHT22;6510;51.362;7.370;2023-05-21T13:08:35;25.10;99.90
12885;DHT22;6510;51.362;7.370;2023-05-21T13:11:01;24.70;99.90
12885;DHT22;6510;51.362;7.370;2023-05-21T13:13:28;24.90;99.90
12885;DHT22;6510;51.362;7.370;2023-05-21T13:15:54;24.70;99.90
12885;DHT22;6510;51.362;7.370;2023-05-21T13:18:20;25.30;99.90
12885;DHT22;6510;51.362;7.370;2023-05-21T13:20:46;25.60;99.90
12885;DHT22;6510;51.362;7.370;2023-05-21T13:23:13;25.40;99.90
12885;DHT22;6510;51.362;7.370;2023-05-21T13:25:40;25.20;99.90
12885;DHT22;6510;51.362;7.370;2023-05-21T13:28:06;24.50;99.90
12885;DHT22;6510;51.362;7.370;2023-05-21T13:30:35;24.00;99.90
12885;DHT22;6510;51.362;7.370;2023-05-21T13:33:01;23.70;99.90
12885;DHT22;6510;51.362;7.370;2023-05-21T13:35:26;23.50;99.90
12885;DHT22;6510;51.362;7.370;2023-05-21T13:37:52;23.90;99.90
12885;DHT22;6510;51.362;7.370;2023-05-21T13:40:18;23.90;99.90
12885;DHT22;6510;51.362;7.370;2023-05-21T13:42:46;24.00;99.90
12885;DHT22;6510;51.362;7.370;2023-05-21T13:45:14;23.80;99.90
12885;DHT22;6510;51.362;7.370;2023-05-21T13:47:42;23.80;99.90
12885;DHT22;6510;51.362;7.370;2023-05-21T13:50:09;23.50;99.90
12885;DHT22;6510;51.362;7.370;2023-05-21T13:52:36;23.70;99.90
12885;DHT22;6510;51.362;7.370;2023-05-21T13:55:02;23.60;99.90
12885;DHT22;6510;51.362;7.370;2023-05-21T13:57:27;24.00;99.90
12885;DHT22;6510;51.362;7.370;2023-05-21T13:59:55;24.40;99.90
12885;DHT22;6510;51.362;7.370;2023-05-21T14:02:21;24.90;99.90
12885;DHT22;6510;51.362;7.370;2023-05-21T14:04:47;25.20;99.90
12885;DHT22;6510;51.362;7.370;2023-05-21T14:07:13;24.90;99.90
12885;DHT22;6510;51.362;7.370;2023-05-21T14:09:39;25.10;99.90
12885;DHT22;6510;51.362;7.370;2023-05-21T14:12:04;24.60;99.90
12885;DHT22;6510;51.362;7.370;2023-05-21T14:14:30;24.80;99.90
12885;DHT22;6510;51.362;7.370;2023-05-21T14:16:56;24.70;99.90
12885;DHT22;6510;51.362;7.370;2023-05-21T14:19:22;24.60;99.90
12885;DHT22;6510;51.362;7.370;2023-05-21T14:21:50;24.50;99.90
12885;DHT22;6510;51.362;7.370;2023-05-21T14:24:16;27.40;99.90
12885;DHT22;6510;51.362;7.370;2023-05-21T14:26:42;27.50;99.90
12885;DHT22;6510;51.362;7.370;2023-05-21T14:29:08;27.20;99.90
12885;DHT22;6510;51.362;7.370;2023-05-21T14:31:34;26.90;99.90
12885;DHT22;6510;51.362;7.370;2023-05-21T14:34:00;27.00;99.90
12885;DHT22;6510;51.362;7.370;2023-05-21T14:36:27;26.60;99.90
12885;DHT22;6510;51.362;7.370;2023-05-21T14:38:53;26.00;99.90
12885;DHT22;6510;51.362;7.370;2023-05-21T14:41:18;26.00;99.90
12885;DHT22;6510;51.362;7.370;2023-05-21T14:43:44;25.60;99.90
12885;DHT22;6510;51.362;7.370;2023-05-21T14:46:10;25.80;99.90
12885;DHT22;6510;51.362;7.370;2023-05-21T14:48:35;25.80;99.90
12885;DHT22;6510;51.362;7.370;2023-05-21T14:51:01;25.20;99.90
12885;DHT22;6510;51.362;7.370;2023-05-21T14:53:26;25.70;99.90
12885;DHT22;6510;51.362;7.370;2023-05-21T14:55:52;25.60;99.90
12885;DHT22;6510;51.362;7.370;2023-05-21T14:58:20;25.50;99.90
12885;DHT22;6510;51.362;7.370;2023-05-21T15:00:46;25.50;99.90
12885;DHT22;6510;51.362;7.370;2023-05-21T15:03:12;25.50;99.90
12885;DHT22;6510;51.362;7.370;2023-05-21T15:05:37;25.50;99.90
12885;DHT22;6510;51.362;7.370;2023-05-21T15:08:03;25.60;99.90
12885;DHT22;6510;51.362;7.370;2023-05-21T15:10:30;25.50;99.90
12885;DHT22;6510;51.362;7.370;2023-05-21T15:12:55;25.20;99.90
12885;DHT22;6510;51.362;7.370;2023-05-21T15:15:21;25.20;99.90
12885;DHT22;6510;51.362;7.370;2023-05-21T15:17:47;24.90;99.90
12885;DHT22;6510;51.362;7.370;2023-05-21T15:20:14;24.70;99.90
12885;DHT22;6510;51.362;7.370;2023-05-21T15:22:39;24.90;99.90
12885;DHT22;6510;51.362;7.370;2023-05-21T15:25:05;25.20;99.90
12885;DHT22;6510;51.362;7.370;2023-05-21T15:27:32;25.20;99.90
12885;DHT22;6510;51.362;7.370;2023-05-21T15:29:57;25.30;99.90
12885;DHT22;6510;51.362;7.370;2023-05-21T15:32:23;25.30;99.90
12885;DHT22;6510;51.362;7.370;2023-05-21T15:34:49;25.50;99.90
12885;DHT22;6510;51.362;7.370;2023-05-21T15:37:16;25.50;99.90
12885;DHT22;6510;51.362;7.370;2023-05-21T15:39:42;25.40;99.90
12885;DHT22;6510;51.362;7.370;2023-05-21T15:42:09;25.20;99.90
12885;DHT22;6510;51.362;7.370;2023-05-21T15:44:39;25.10;99.90
12885;DHT22;6510;51.362;7.370;2023-05-21T15:47:06;24.90;99.90
12885;DHT22;6510;51.362;7.370;2023-05-21T15:49:32;24.90;99.90
12885;DHT22;6510;51.362;7.370;2023-05-21T15:51:58;24.80;99.90
12885;DHT22;6510;51.362;7.370;2023-05-21T15:54:25;24.70;99.90
12885;DHT22;6510;51.362;7.370;2023-05-21T15:56:51;24.50;99.90
12885;DHT22;6510;51.362;7.370;2023-05-21T15:59:17;24.40;99.90
12885;DHT22;6510;51.362;7.370;2023-05-21T16:01:42;24.40;99.90